createdAt,value
2022-11-05T00:02:14.857Z,99350.34
2022-11-05T00:05:02.188Z,99359.78
2022-11-05T00:07:53.593Z,99357.47
2022-11-05T00:10:24.824Z,99362.56
2022-11-05T00:13:15.133Z,99360.06
2022-11-05T00:16:02.648Z,99361.91
2022-11-05T00:18:32.296Z,99361.69
2022-11-05T00:21:01.833Z,99368.06
2022-11-05T00:23:48.571Z,99366.38
2022-11-05T00:26:18.145Z,99355.03
2022-11-05T00:28:49.017Z,99364.28
2022-11-05T00:31:18.554Z,99358.94
2022-11-05T00:33:48.064Z,99362.66
2022-11-05T00:36:17.893Z,99356.25
2022-11-05T00:38:47.533Z,99362.03
2022-11-05T00:41:17.026Z,99363.13
2022-11-05T00:44:03.878Z,99359.09
2022-11-05T00:46:34.977Z,99345.78
2022-11-05T00:49:26.969Z,99344.75
2022-11-05T00:52:17.197Z,99354.94
2022-11-05T00:54:48.766Z,99354.03
2022-11-05T00:57:18.352Z,99354.75
2022-11-05T00:59:47.925Z,99356.38
2022-11-05T01:02:18.899Z,99353.75
2022-11-05T01:04:48.573Z,99355.91
2022-11-05T01:07:18.204Z,99353.38
2022-11-05T01:09:47.764Z,99350.44
2022-11-05T01:12:18.504Z,99350.13
2022-11-05T01:14:48.670Z,99351.31
2022-11-05T01:17:20.045Z,99345.53
2022-11-05T01:19:49.750Z,99345.13
2022-11-05T01:22:37.441Z,99335.28
2022-11-05T01:25:08.476Z,99342.88
2022-11-05T01:27:38.677Z,99342.03
2022-11-05T01:30:09.873Z,99338.44
2022-11-05T01:32:40.831Z,99329.41
2022-11-05T01:35:12.313Z,99341.72
2022-11-05T01:37:42.533Z,99332.69
2022-11-05T01:40:12.917Z,99331.47
2022-11-05T01:42:42.427Z,99332.53
2022-11-05T01:45:13.979Z,99330.25
2022-11-05T01:47:49.875Z,99325.44
2022-11-05T01:50:27.372Z,99329.28
2022-11-05T01:53:01.092Z,99336.25
2022-11-05T01:55:32.919Z,99328.41
2022-11-05T01:58:03.612Z,99333.72
2022-11-05T02:00:33.163Z,99326.63
2022-11-05T02:03:04.114Z,99325.53
2022-11-05T02:05:34.195Z,99338.13
2022-11-05T02:08:03.949Z,99333.66
2022-11-05T02:10:34.045Z,99328.00
2022-11-05T02:13:04.361Z,99329.22
2022-11-05T02:15:39.780Z,99327.31
2022-11-05T02:18:16.721Z,99331.53
2022-11-05T02:20:52.461Z,99327.88
2022-11-05T02:23:42.495Z,99331.97
2022-11-05T02:26:25.853Z,99318.38
2022-11-05T02:29:07.368Z,99313.88
2022-11-05T02:31:42.908Z,99320.97
2022-11-05T02:34:17.724Z,99301.91
2022-11-05T02:36:49.676Z,99301.94
2022-11-05T02:39:27.075Z,99310.63
2022-11-05T02:42:04.934Z,99315.59
2022-11-05T02:44:39.463Z,99302.50
2022-11-05T02:47:18.261Z,99299.72
2022-11-05T02:49:50.805Z,99299.72
2022-11-05T02:52:25.400Z,99297.69
2022-11-05T02:54:59.454Z,99300.34
2022-11-05T02:57:30.165Z,99303.13
2022-11-05T03:00:03.934Z,99294.78
2022-11-05T03:02:35.226Z,99297.53
2022-11-05T03:05:05.465Z,99301.50
2022-11-05T03:07:43.715Z,99304.91
2022-11-05T03:10:28.491Z,99298.53
2022-11-05T03:13:05.005Z,99300.25
2022-11-05T03:15:41.749Z,99293.72
2022-11-05T03:18:16.204Z,99296.38
2022-11-05T03:20:49.072Z,99294.22
2022-11-05T03:23:24.364Z,99300.50
2022-11-05T03:25:56.783Z,99299.06
2022-11-05T03:28:28.387Z,99295.41
2022-11-05T03:30:59.289Z,99288.38
2022-11-05T03:33:32.198Z,99289.97
2022-11-05T03:36:04.614Z,99299.72
2022-11-05T03:38:36.694Z,99293.19
2022-11-05T03:41:08.670Z,99288.88
2022-11-05T03:43:39.465Z,99288.47
2022-11-05T03:46:10.891Z,99286.09
2022-11-05T03:48:45.402Z,99285.22
2022-11-05T03:51:19.572Z,99284.53
2022-11-05T03:53:51.155Z,99293.75
2022-11-05T03:56:24.185Z,99285.22
2022-11-05T03:58:58.705Z,99283.38
2022-11-05T04:01:29.527Z,99288.00
2022-11-05T04:04:00.588Z,99292.72
2022-11-05T04:06:47.348Z,99282.81
2022-11-05T04:09:34.485Z,99289.44
2022-11-05T04:12:22.377Z,99283.06
2022-11-05T04:14:52.406Z,99280.59
2022-11-05T04:17:21.422Z,99274.06
2022-11-05T04:20:09.913Z,99283.34
2022-11-05T04:22:56.680Z,99281.06
2022-11-05T04:25:26.144Z,99281.22
2022-11-05T04:27:59.389Z,99281.22
2022-11-05T04:30:29.225Z,99276.56
2022-11-05T04:33:00.146Z,99281.50
2022-11-05T04:35:33.264Z,99284.63
2022-11-05T04:38:03.091Z,99285.13
2022-11-05T04:40:33.016Z,99289.22
2022-11-05T04:43:03.032Z,99290.19
2022-11-05T04:45:34.357Z,99291.16
2022-11-05T04:48:04.416Z,99287.41
2022-11-05T04:50:35.604Z,99295.97
2022-11-05T04:53:05.525Z,99309.72
2022-11-05T04:55:35.450Z,99304.44
2022-11-05T04:58:05.373Z,99311.19
2022-11-05T05:00:34.999Z,99308.16
2022-11-05T05:03:04.582Z,99311.69
2022-11-05T05:05:35.682Z,99314.44
2022-11-05T05:08:06.155Z,99310.09
2022-11-05T05:10:35.653Z,99317.34
2022-11-05T05:13:06.612Z,99327.94
2022-11-05T05:15:38.356Z,99325.91
2022-11-05T05:18:07.852Z,99331.19
2022-11-05T05:20:56.298Z,99331.56
2022-11-05T05:23:26.184Z,99337.13
2022-11-05T05:25:55.689Z,99337.25
2022-11-05T05:28:25.181Z,99345.81
2022-11-05T05:30:58.698Z,99341.13
2022-11-05T05:33:28.640Z,99351.97
2022-11-05T05:35:59.873Z,99350.50
2022-11-05T05:38:30.078Z,99349.41
2022-11-05T05:41:01.509Z,99361.84
2022-11-05T05:43:31.461Z,99374.88
2022-11-05T05:46:02.748Z,99375.84
2022-11-05T05:48:32.253Z,99388.75
2022-11-05T05:51:03.368Z,99380.44
2022-11-05T05:53:32.959Z,99387.44
2022-11-05T05:56:02.532Z,99390.31
2022-11-05T05:58:33.406Z,99394.09
2022-11-05T06:01:03.625Z,99397.06
2022-11-05T06:03:33.144Z,99395.97
2022-11-05T06:06:05.160Z,99409.88
2022-11-05T06:08:34.858Z,99407.59
2022-11-05T06:11:05.188Z,99413.28
2022-11-05T06:13:37.142Z,99405.81
2022-11-05T06:16:07.920Z,99412.44
2022-11-05T06:18:38.727Z,99409.19
2022-11-05T06:21:10.790Z,99409.91
2022-11-05T06:23:41.427Z,99415.31
2022-11-05T06:26:12.170Z,99424.72
2022-11-05T06:28:42.207Z,99420.84
2022-11-05T06:31:12.462Z,99424.84
2022-11-05T06:33:42.382Z,99427.38
2022-11-05T06:36:15.800Z,99430.22
2022-11-05T06:38:45.235Z,99428.66
2022-11-05T06:41:14.901Z,99431.28
2022-11-05T06:43:44.705Z,99432.47
2022-11-05T06:46:14.352Z,99440.94
2022-11-05T06:48:43.862Z,99432.31
2022-11-05T06:51:16.104Z,99432.41
2022-11-05T06:53:45.746Z,99431.31
2022-11-05T06:56:15.368Z,99435.69
2022-11-05T06:58:44.873Z,99435.19
2022-11-05T07:01:14.535Z,99426.34
2022-11-05T07:03:45.270Z,99429.44
2022-11-05T07:06:16.399Z,99431.47
2022-11-05T07:08:46.080Z,99427.69
2022-11-05T07:11:15.728Z,99425.72
2022-11-05T07:13:45.617Z,99421.41
2022-11-05T07:16:15.789Z,99419.06
2022-11-05T07:18:45.375Z,99415.97
2022-11-05T07:21:16.485Z,99410.84
2022-11-05T07:23:45.946Z,99410.19
2022-11-05T07:26:15.544Z,99411.56
2022-11-05T07:28:45.053Z,99408.13
2022-11-05T07:31:14.788Z,99402.03
2022-11-05T07:33:44.320Z,99405.66
2022-11-05T07:36:14.874Z,99402.63
2022-11-05T07:38:45.845Z,99393.97
2022-11-05T07:41:15.375Z,99392.47
2022-11-05T07:43:45.249Z,99386.59
2022-11-05T07:46:15.065Z,99390.16
2022-11-05T07:48:45.056Z,99386.06
2022-11-05T07:51:14.656Z,99378.00
2022-11-05T07:53:46.401Z,99379.41
2022-11-05T07:56:15.941Z,99376.34
2022-11-05T07:58:46.785Z,99378.47
2022-11-05T08:01:16.452Z,99371.25
2022-11-05T08:03:46.428Z,99364.78
2022-11-05T08:06:16.032Z,99367.66
2022-11-05T08:08:47.145Z,99361.38
2022-11-05T08:11:16.702Z,99372.97
2022-11-05T08:13:47.057Z,99365.72
2022-11-05T08:16:17.461Z,99355.47
2022-11-05T08:18:47.033Z,99355.47
2022-11-05T08:21:16.653Z,99358.13
2022-11-05T08:23:47.588Z,99350.88
2022-11-05T08:26:17.245Z,99353.41
2022-11-05T08:28:46.920Z,99354.94
2022-11-05T08:31:18.159Z,99354.69
2022-11-05T08:33:47.901Z,99358.47
2022-11-05T08:36:17.616Z,99356.63
2022-11-05T08:38:48.897Z,99351.22
2022-11-05T08:41:19.697Z,99349.31
2022-11-05T08:43:50.707Z,99350.41
2022-11-05T08:46:20.408Z,99341.97
2022-11-05T08:48:50.046Z,99344.66
2022-11-05T08:51:19.731Z,99353.09
2022-11-05T08:53:50.581Z,99357.03
2022-11-05T08:56:20.683Z,99343.22
2022-11-05T08:58:50.457Z,99341.53
2022-11-05T09:01:20.256Z,99344.53
2022-11-05T09:03:51.337Z,99337.06
2022-11-05T09:06:21.182Z,99334.09
2022-11-05T09:08:55.442Z,99342.81
2022-11-05T09:11:37.768Z,99329.72
2022-11-05T09:14:15.471Z,99324.91
2022-11-05T09:16:45.726Z,99327.84
2022-11-05T09:19:15.485Z,99317.84
2022-11-05T09:21:45.296Z,99315.66
2022-11-05T09:24:16.286Z,99308.59
2022-11-05T09:26:46.295Z,99308.25
2022-11-05T09:29:16.170Z,99303.69
2022-11-05T09:31:45.702Z,99301.63
2022-11-05T09:34:15.263Z,99298.31
2022-11-05T09:36:44.906Z,99294.44
2022-11-05T09:39:14.538Z,99300.53
2022-11-05T09:41:47.093Z,99300.16
2022-11-05T09:44:19.812Z,99290.84
2022-11-05T09:46:51.097Z,99291.75
2022-11-05T09:49:25.780Z,99278.59
2022-11-05T09:51:56.727Z,99285.19
2022-11-05T09:54:28.824Z,99282.06
2022-11-05T09:57:03.077Z,99276.16
2022-11-05T09:59:36.456Z,99275.00
2022-11-05T10:02:13.691Z,99278.72
2022-11-05T10:04:46.305Z,99273.72
2022-11-05T10:07:17.968Z,99264.53
2022-11-05T10:09:48.983Z,99260.75
2022-11-05T10:12:23.589Z,99258.94
2022-11-05T10:14:58.427Z,99247.84
2022-11-05T10:17:30.565Z,99250.06
2022-11-05T10:20:10.140Z,99241.69
2022-11-05T10:22:42.855Z,99242.34
2022-11-05T10:25:17.665Z,99235.47
2022-11-05T10:27:52.172Z,99243.69
2022-11-05T10:30:22.300Z,99228.25
2022-11-05T10:32:55.472Z,99224.19
2022-11-05T10:35:26.099Z,99225.72
2022-11-05T10:37:55.971Z,99224.38
2022-11-05T10:40:33.271Z,99219.66
2022-11-05T10:43:06.190Z,99219.63
2022-11-05T10:45:46.482Z,99208.47
2022-11-05T10:48:31.397Z,99211.47
2022-11-05T10:51:02.485Z,99201.28
2022-11-05T10:53:33.892Z,99197.91
2022-11-05T10:56:05.937Z,99199.75
2022-11-05T10:58:39.251Z,99200.72
2022-11-05T11:01:11.692Z,99195.47
2022-11-05T11:03:44.618Z,99188.41
2022-11-05T11:06:21.163Z,99183.53
2022-11-05T11:08:51.581Z,99189.69
2022-11-05T11:11:28.585Z,99180.28
2022-11-05T11:14:08.123Z,99180.75
2022-11-05T11:16:39.883Z,99178.97
2022-11-05T11:19:24.811Z,99178.72
2022-11-05T11:22:09.449Z,99168.03
2022-11-05T11:24:39.837Z,99162.19
2022-11-05T11:27:11.491Z,99155.56
2022-11-05T11:29:49.171Z,99157.25
2022-11-05T11:32:20.727Z,99140.63
2022-11-05T11:34:53.980Z,99140.16
2022-11-05T11:37:25.634Z,99149.78
2022-11-05T11:39:57.254Z,99151.78
2022-11-05T11:42:30.248Z,99144.13
2022-11-05T11:45:03.038Z,99129.22
2022-11-05T11:47:33.250Z,99148.88
2022-11-05T11:50:30.828Z,99140.09
2022-11-05T11:53:15.679Z,99129.59
2022-11-05T11:55:58.026Z,99131.38
2022-11-05T11:58:37.302Z,99128.63
2022-11-05T12:01:14.034Z,99111.47
2022-11-05T12:03:48.856Z,99117.91
2022-11-05T12:06:26.145Z,99114.34
2022-11-05T12:09:06.533Z,99117.31
2022-11-05T12:11:40.477Z,99118.41
2022-11-05T12:14:15.082Z,99118.53
2022-11-05T12:16:56.394Z,99124.31
2022-11-05T12:19:30.872Z,99123.03
2022-11-05T12:22:03.640Z,99127.66
2022-11-05T12:24:42.210Z,99131.44
2022-11-05T12:27:19.051Z,99132.09
2022-11-05T12:29:54.424Z,99127.59
2022-11-05T12:32:39.141Z,99131.31
2022-11-05T12:35:17.127Z,99129.75
2022-11-05T12:37:54.484Z,99124.72
2022-11-05T12:40:42.027Z,99128.88
2022-11-05T12:43:16.924Z,99120.97
2022-11-05T12:45:50.839Z,99121.38
2022-11-05T12:48:30.338Z,99119.84
2022-11-05T12:51:09.817Z,99117.78
2022-11-05T12:53:44.895Z,99119.56
2022-11-05T12:56:16.832Z,99129.06
2022-11-05T12:58:48.576Z,99116.88
2022-11-05T13:01:28.040Z,99119.84
2022-11-05T13:04:01.133Z,99126.34
2022-11-05T13:06:35.280Z,99127.63
2022-11-05T13:09:08.662Z,99126.34
2022-11-05T13:11:41.061Z,99130.66
2022-11-05T13:14:14.462Z,99131.00
2022-11-05T13:16:47.552Z,99127.66
2022-11-05T13:19:20.186Z,99130.06
2022-11-05T13:21:53.574Z,99124.50
2022-11-05T13:24:25.606Z,99138.03
2022-11-05T13:26:57.232Z,99143.63
2022-11-05T13:29:28.753Z,99143.03
2022-11-05T13:32:00.038Z,99140.84
2022-11-05T13:34:34.831Z,99147.50
2022-11-05T13:37:26.281Z,99140.69
2022-11-05T13:39:57.503Z,99139.31
2022-11-05T13:43:09.849Z,99136.41
2022-11-05T13:45:49.537Z,99140.13
2022-11-05T13:48:32.892Z,99139.47
2022-11-05T13:51:13.490Z,99143.22
2022-11-05T13:53:54.462Z,99146.50
2022-11-05T13:56:35.312Z,99141.13
2022-11-05T13:59:28.531Z,99144.38
2022-11-05T14:01:59.703Z,99145.28
2022-11-05T14:04:33.789Z,99147.97
2022-11-05T14:07:08.334Z,99143.13
2022-11-05T14:09:41.390Z,99146.03
2022-11-05T14:12:19.773Z,99152.22
2022-11-05T14:14:58.514Z,99153.81
2022-11-05T14:17:30.309Z,99152.31
2022-11-05T14:20:12.591Z,99151.59
2022-11-05T14:22:42.839Z,99158.50
2022-11-05T14:25:31.010Z,99156.47
2022-11-05T14:28:02.134Z,99157.81
2022-11-05T14:30:41.255Z,99168.06
2022-11-05T14:33:15.911Z,99175.78
2022-11-05T14:35:45.773Z,99177.19
2022-11-05T14:38:20.094Z,99174.59
2022-11-05T14:40:49.884Z,99176.81
2022-11-05T14:43:23.685Z,99169.47
2022-11-05T14:45:54.979Z,99169.84
2022-11-05T14:48:37.960Z,99176.91
2022-11-05T14:51:28.781Z,99191.13
2022-11-05T14:54:03.841Z,99182.69
2022-11-05T14:56:43.406Z,99189.66
2022-11-05T14:59:34.551Z,99191.34
2022-11-05T15:02:10.881Z,99200.22
2022-11-05T15:04:42.971Z,99195.94
2022-11-05T15:07:14.515Z,99198.63
2022-11-05T15:09:46.194Z,99200.75
2022-11-05T15:12:19.817Z,99205.88
2022-11-05T15:14:56.182Z,99203.72
2022-11-05T15:17:31.017Z,99208.19
2022-11-05T15:20:08.662Z,99215.41
2022-11-05T15:22:43.409Z,99213.06
2022-11-05T15:25:18.262Z,99220.38
2022-11-05T15:27:51.970Z,99224.59
2022-11-05T15:30:23.261Z,99222.25
2022-11-05T15:32:54.476Z,99224.19
2022-11-05T15:35:27.109Z,99226.38
2022-11-05T15:38:02.175Z,99230.28
2022-11-05T15:40:34.201Z,99239.44
2022-11-05T15:43:11.550Z,99243.66
2022-11-05T15:45:41.654Z,99245.59
2022-11-05T15:48:16.855Z,99246.47
2022-11-05T15:50:46.779Z,99245.88
2022-11-05T15:56:09.924Z,99253.66
2022-11-05T15:58:43.542Z,99250.97
2022-11-05T16:01:20.852Z,99252.50
2022-11-05T16:03:53.337Z,99249.84
2022-11-05T16:06:23.828Z,99249.69
2022-11-05T16:08:53.661Z,99253.09
2022-11-05T16:11:24.600Z,99257.13
2022-11-05T16:14:13.600Z,99258.34
2022-11-05T16:16:44.424Z,99258.66
2022-11-05T16:19:39.915Z,99263.56
2022-11-05T16:22:10.376Z,99261.56
2022-11-05T16:24:40.609Z,99269.97
2022-11-05T16:27:19.195Z,99266.78
2022-11-05T16:29:52.151Z,99261.09
2022-11-05T16:32:29.697Z,99262.28
2022-11-05T16:35:03.272Z,99263.94
2022-11-05T16:37:37.974Z,99264.63
2022-11-05T16:40:13.902Z,99262.75
2022-11-05T16:42:43.906Z,99275.53
2022-11-05T16:45:14.998Z,99267.66
2022-11-05T16:47:45.814Z,99269.66
2022-11-05T16:50:25.066Z,99284.78
2022-11-05T16:52:54.949Z,99286.81
2022-11-05T16:55:27.291Z,99284.44
2022-11-05T16:57:59.551Z,99289.97
2022-11-05T17:00:30.460Z,99283.94
2022-11-05T17:03:00.357Z,99287.81
2022-11-05T17:05:32.100Z,99296.03
2022-11-05T17:08:03.742Z,99294.72
2022-11-05T17:10:33.531Z,99295.72
2022-11-05T17:13:06.088Z,99298.72
2022-11-05T17:15:36.753Z,99302.28
2022-11-05T17:18:07.321Z,99297.03
2022-11-05T17:20:41.126Z,99300.91
2022-11-05T17:23:11.812Z,99296.03
2022-11-05T17:25:42.604Z,99300.06
2022-11-05T17:28:16.856Z,99305.63
2022-11-05T17:30:52.201Z,99308.47
2022-11-05T17:33:23.637Z,99311.34
2022-11-05T17:35:55.105Z,99305.28
2022-11-05T17:38:27.269Z,99302.94
2022-11-05T17:40:57.511Z,99304.63
2022-11-05T17:43:27.313Z,99307.47
2022-11-05T17:46:03.107Z,99307.78
2022-11-05T17:48:39.688Z,99307.31
2022-11-05T17:51:11.622Z,99307.13
2022-11-05T17:53:41.360Z,99312.84
2022-11-05T17:56:11.697Z,99308.16
2022-11-05T17:58:44.690Z,99316.88
2022-11-05T18:01:27.634Z,99317.88
2022-11-05T18:03:57.903Z,99318.91
2022-11-05T18:06:31.611Z,99314.72
2022-11-05T18:09:01.598Z,99310.81
2022-11-05T18:11:33.994Z,99312.34
2022-11-05T18:14:04.131Z,99306.97
2022-11-05T18:16:36.969Z,99302.09
2022-11-05T18:19:09.000Z,99312.00
2022-11-05T18:21:40.211Z,99311.16
2022-11-05T18:24:10.208Z,99311.16
2022-11-05T18:26:40.078Z,99310.69
2022-11-05T18:29:12.713Z,99301.59
2022-11-05T18:31:42.798Z,99305.44
2022-11-05T18:34:12.726Z,99294.53
2022-11-05T18:36:49.841Z,99300.25
2022-11-05T18:39:23.320Z,99289.50
2022-11-05T18:41:54.510Z,99300.75
2022-11-05T18:44:38.749Z,99294.88
2022-11-05T18:47:14.536Z,99296.03
2022-11-05T18:49:50.557Z,99290.84
2022-11-05T18:52:23.020Z,99292.22
2022-11-05T18:54:52.888Z,99296.38
2022-11-05T18:57:23.075Z,99292.88
2022-11-05T18:59:53.240Z,99301.09
2022-11-05T19:02:23.310Z,99298.59
2022-11-05T19:05:26.812Z,99302.31
2022-11-05T19:07:44.314Z,99303.63
2022-11-05T19:10:16.414Z,99305.13
2022-11-05T19:12:46.765Z,99304.13
2022-11-05T19:15:19.553Z,99303.81
2022-11-05T19:17:49.569Z,99312.34
2022-11-05T19:20:19.454Z,99312.19
2022-11-05T19:22:50.695Z,99317.25
2022-11-05T19:25:20.539Z,99319.06
2022-11-05T19:27:50.282Z,99322.06
2022-11-05T19:30:22.247Z,99320.72
2022-11-05T19:32:53.280Z,99325.25
2022-11-05T19:35:28.838Z,99323.38
2022-11-05T19:38:00.101Z,99326.59
2022-11-05T19:40:29.865Z,99330.44
2022-11-05T19:43:00.173Z,99332.94
2022-11-05T19:45:44.729Z,99333.13
2022-11-05T19:48:19.362Z,99333.63
2022-11-05T19:50:49.938Z,99348.03
2022-11-05T19:53:23.189Z,99342.84
2022-11-05T19:55:52.942Z,99344.88
2022-11-05T19:58:23.385Z,99344.03
2022-11-05T20:00:56.255Z,99348.53
2022-11-05T20:03:30.521Z,99345.03
2022-11-05T20:06:07.890Z,99341.34
2022-11-05T20:08:53.286Z,99348.88
2022-11-05T20:11:28.918Z,99347.72
2022-11-05T20:14:00.023Z,99350.91
2022-11-05T20:16:32.476Z,99350.03
2022-11-05T20:19:04.294Z,99352.22
2022-11-05T20:21:34.208Z,99345.88
2022-11-05T20:24:08.807Z,99346.03
2022-11-05T20:26:38.701Z,99348.88
2022-11-05T20:29:08.466Z,99346.69
2022-11-05T20:31:38.266Z,99353.22
2022-11-05T20:34:09.187Z,99360.63
2022-11-05T20:36:40.164Z,99355.09
2022-11-05T20:39:14.627Z,99356.06
2022-11-05T20:41:44.405Z,99355.25
2022-11-05T20:44:17.269Z,99364.97
2022-11-05T20:46:47.004Z,99356.91
2022-11-05T20:49:21.295Z,99364.28
2022-11-05T20:51:54.044Z,99362.59
2022-11-05T20:54:25.292Z,99357.56
2022-11-05T20:56:54.980Z,99361.41
2022-11-05T20:59:24.836Z,99358.06
2022-11-05T21:01:56.612Z,99363.25
2022-11-05T21:04:32.339Z,99365.94
2022-11-05T21:07:02.108Z,99358.44
2022-11-05T21:09:33.204Z,99364.63
2022-11-05T21:12:12.294Z,99359.59
2022-11-05T21:14:44.707Z,99352.88
2022-11-05T21:17:14.839Z,99356.03
2022-11-05T21:19:44.791Z,99358.22
2022-11-05T21:22:17.502Z,99363.06
2022-11-05T21:24:48.621Z,99363.25
2022-11-05T21:27:21.400Z,99369.97
2022-11-05T21:29:56.225Z,99379.69
2022-11-05T21:32:26.074Z,99375.50
2022-11-05T21:34:58.953Z,99375.81
2022-11-05T21:37:28.871Z,99379.50
2022-11-05T21:39:59.937Z,99373.31
2022-11-05T21:42:30.333Z,99378.88
2022-11-05T21:45:05.533Z,99379.03
2022-11-05T21:47:35.768Z,99382.34
2022-11-05T21:50:05.683Z,99394.22
2022-11-05T21:52:52.862Z,99383.84
2022-11-05T21:55:37.743Z,99395.22
2022-11-05T21:58:29.788Z,99393.38
2022-11-05T22:01:01.102Z,99392.53
2022-11-05T22:03:32.290Z,99398.22
2022-11-05T22:06:02.039Z,99398.06
2022-11-05T22:08:32.837Z,99405.28
2022-11-05T22:11:06.154Z,99404.41
2022-11-05T22:13:36.361Z,99404.41
2022-11-05T22:16:06.764Z,99404.25
2022-11-05T22:18:36.680Z,99406.78
2022-11-05T22:21:06.605Z,99405.28
2022-11-05T22:23:36.255Z,99411.78
2022-11-05T22:26:07.310Z,99405.75
2022-11-05T22:28:36.964Z,99403.38
2022-11-05T22:31:12.489Z,99415.75
2022-11-05T22:33:42.500Z,99402.19
2022-11-05T22:36:12.476Z,99407.69
2022-11-05T22:38:45.570Z,99405.50
2022-11-05T22:41:17.685Z,99410.97
2022-11-05T22:43:47.804Z,99403.25
2022-11-05T22:46:18.738Z,99403.56
2022-11-05T22:48:48.718Z,99414.63
2022-11-05T22:51:20.250Z,99411.09
2022-11-05T22:53:50.161Z,99409.56
2022-11-05T22:56:21.830Z,99415.75
2022-11-05T22:58:52.420Z,99412.09
2022-11-05T23:01:22.889Z,99414.78
2022-11-05T23:03:53.851Z,99407.88
2022-11-05T23:06:42.505Z,99402.84
2022-11-05T23:09:32.188Z,99408.53
2022-11-05T23:12:04.967Z,99405.19
2022-11-05T23:14:36.083Z,99396.28
2022-11-05T23:17:23.416Z,99405.47
2022-11-05T23:20:25.121Z,99398.03
2022-11-05T23:23:12.108Z,99399.97
2022-11-05T23:25:42.319Z,99398.28
2022-11-05T23:28:13.433Z,99396.22
2022-11-05T23:30:58.792Z,99387.44
2022-11-05T23:33:29.082Z,99394.84
2022-11-05T23:36:16.320Z,99393.47
2022-11-05T23:38:46.349Z,99392.13
2022-11-05T23:41:33.792Z,99395.66
2022-11-05T23:44:22.321Z,99394.09
2022-11-05T23:47:09.073Z,99394.75
2022-11-05T23:49:38.961Z,99399.94
2022-11-05T23:52:08.461Z,99400.56
2022-11-05T23:54:37.948Z,99407.06
2022-11-05T23:57:07.817Z,99412.41
2022-11-05T23:59:38.678Z,99406.22
